createdAt,value
2019-02-06T00:01:18.139Z,101515.24
2019-02-06T00:03:44.870Z,101513.55
2019-02-06T00:06:11.710Z,101513.38
2019-02-06T00:08:38.554Z,101515.33
2019-02-06T00:11:05.394Z,101512.38
2019-02-06T00:13:32.258Z,101512.38
2019-02-06T00:15:59.066Z,101519.19
2019-02-06T00:18:25.907Z,101513.75
2019-02-06T00:20:52.742Z,101513.31
2019-02-06T00:23:19.566Z,101517.46
2019-02-06T00:25:46.382Z,101510.83
2019-02-06T00:28:13.262Z,101509.82
2019-02-06T00:30:40.088Z,101510.47
2019-02-06T00:33:06.935Z,101508.77
2019-02-06T00:35:33.759Z,101507.95
2019-02-06T00:38:00.658Z,101506.65
2019-02-06T00:40:27.527Z,101505.38
2019-02-06T00:42:54.358Z,101506.36
2019-02-06T00:45:21.197Z,101510.73
2019-02-06T00:47:48.014Z,101511.36
2019-02-06T00:50:14.869Z,101518.11
2019-02-06T00:52:41.694Z,101514.19
2019-02-06T00:55:08.813Z,101506.38
2019-02-06T00:57:35.633Z,101510.23
2019-02-06T01:00:02.657Z,101513.66
2019-02-06T01:02:29.478Z,101505.75
2019-02-06T01:04:56.313Z,101509.00
2019-02-06T01:07:23.202Z,101507.83
2019-02-06T01:09:50.026Z,101514.27
2019-02-06T01:12:17.070Z,101504.37
2019-02-06T01:14:43.901Z,101506.09
2019-02-06T01:17:10.774Z,101512.88
2019-02-06T01:19:37.599Z,101504.28
2019-02-06T01:22:04.471Z,101504.28
2019-02-06T01:24:31.289Z,101503.59
2019-02-06T01:26:58.139Z,101515.02
2019-02-06T01:29:24.958Z,101509.89
2019-02-06T01:31:51.803Z,101513.19
2019-02-06T01:34:18.627Z,101522.73
2019-02-06T01:36:45.464Z,101518.77
2019-02-06T01:39:12.955Z,101519.83
2019-02-06T01:41:39.833Z,101524.14
2019-02-06T01:44:06.665Z,101516.56
2019-02-06T01:46:33.574Z,101512.55
2019-02-06T01:49:00.410Z,101512.70
2019-02-06T01:51:27.265Z,101514.69
2019-02-06T01:53:54.114Z,101517.39
2019-02-06T01:56:20.958Z,101513.77
2019-02-06T01:58:47.794Z,101511.46
2019-02-06T02:01:14.642Z,101511.95
2019-02-06T02:03:41.490Z,101509.61
2019-02-06T02:06:08.334Z,101512.39
2019-02-06T02:08:36.157Z,101508.66
2019-02-06T02:11:03.004Z,101510.95
2019-02-06T02:13:29.825Z,101512.39
2019-02-06T02:15:56.698Z,101512.48
2019-02-06T02:18:23.553Z,101504.41
2019-02-06T02:20:50.378Z,101506.76
2019-02-06T02:23:17.244Z,101499.30
2019-02-06T02:25:44.070Z,101504.31
2019-02-06T02:28:10.919Z,101500.77
2019-02-06T02:30:41.681Z,101489.86
2019-02-06T02:33:08.521Z,101494.98
2019-02-06T02:35:35.370Z,101491.45
2019-02-06T02:38:02.235Z,101491.23
2019-02-06T02:40:29.053Z,101490.38
2019-02-06T02:42:55.867Z,101488.91
2019-02-06T02:45:22.720Z,101487.39
2019-02-06T02:47:49.542Z,101492.29
2019-02-06T02:50:16.373Z,101495.54
2019-02-06T02:52:43.300Z,101491.22
2019-02-06T02:55:10.116Z,101495.50
2019-02-06T02:57:36.946Z,101491.42
2019-02-06T03:00:06.890Z,101492.85
2019-02-06T03:02:42.392Z,101493.75
2019-02-06T03:05:13.090Z,101490.27
2019-02-06T03:07:39.797Z,101485.77
2019-02-06T03:10:07.390Z,101484.13
2019-02-06T03:12:34.218Z,101484.45
2019-02-06T03:15:01.216Z,101492.04
2019-02-06T03:17:27.910Z,101485.06
2019-02-06T03:19:54.758Z,101479.95
2019-02-06T03:22:21.577Z,101485.58
2019-02-06T03:24:48.455Z,101480.30
2019-02-06T03:27:15.294Z,101482.42
2019-02-06T03:29:42.246Z,101487.67
2019-02-06T03:32:09.076Z,101490.92
2019-02-06T03:34:35.924Z,101482.58
2019-02-06T03:37:02.739Z,101478.33
2019-02-06T03:39:29.635Z,101473.00
2019-02-06T03:41:56.463Z,101475.97
2019-02-06T03:44:23.281Z,101472.66
2019-02-06T03:46:50.122Z,101462.32
2019-02-06T03:49:16.942Z,101471.32
2019-02-06T03:51:43.781Z,101459.16
2019-02-06T03:54:10.603Z,101457.56
2019-02-06T03:56:37.442Z,101459.88
2019-02-06T03:59:04.260Z,101469.30
2019-02-06T04:01:31.112Z,101466.27
2019-02-06T04:03:57.935Z,101469.69
2019-02-06T04:06:24.807Z,101468.95
2019-02-06T04:08:51.986Z,101470.11
2019-02-06T04:11:18.862Z,101473.67
2019-02-06T04:13:45.706Z,101475.20
2019-02-06T04:16:12.552Z,101475.95
2019-02-06T04:18:39.406Z,101484.98
2019-02-06T04:21:06.242Z,101480.22
2019-02-06T04:23:33.080Z,101477.58
2019-02-06T04:25:59.928Z,101488.03
2019-02-06T04:28:26.743Z,101486.22
2019-02-06T04:30:53.599Z,101483.89
2019-02-06T04:33:20.422Z,101485.13
2019-02-06T04:35:47.253Z,101486.18
2019-02-06T04:38:14.090Z,101478.36
2019-02-06T04:40:40.962Z,101486.45
2019-02-06T04:43:07.778Z,101476.52
2019-02-06T04:45:34.631Z,101468.30
2019-02-06T04:48:01.450Z,101477.42
2019-02-06T04:50:28.285Z,101472.34
2019-02-06T04:52:55.117Z,101475.05
2019-02-06T04:55:21.955Z,101477.63
2019-02-06T04:57:48.782Z,101470.84
2019-02-06T05:00:17.984Z,101464.78
2019-02-06T05:02:44.833Z,101464.39
2019-02-06T05:05:11.650Z,101467.22
2019-02-06T05:07:38.497Z,101462.47
2019-02-06T05:10:07.070Z,101467.16
2019-02-06T05:12:33.926Z,101467.85
2019-02-06T05:15:00.792Z,101470.37
2019-02-06T05:17:27.703Z,101466.28
2019-02-06T05:19:54.535Z,101470.80
2019-02-06T05:22:21.507Z,101459.40
2019-02-06T05:24:48.318Z,101465.41
2019-02-06T05:27:15.175Z,101471.32
2019-02-06T05:29:42.006Z,101464.81
2019-02-06T05:32:08.862Z,101473.30
2019-02-06T05:34:35.710Z,101469.11
2019-02-06T05:37:02.546Z,101468.74
2019-02-06T05:39:29.374Z,101468.52
2019-02-06T05:41:56.233Z,101466.06
2019-02-06T05:44:23.054Z,101463.06
2019-02-06T05:46:50.001Z,101479.48
2019-02-06T05:49:16.744Z,101469.11
2019-02-06T05:51:43.571Z,101472.17
2019-02-06T05:54:10.430Z,101471.07
2019-02-06T05:56:37.398Z,101464.84
2019-02-06T05:59:04.231Z,101460.46
2019-02-06T06:01:31.074Z,101466.78
2019-02-06T06:03:57.888Z,101462.91
2019-02-06T06:06:24.748Z,101464.06
2019-02-06T06:08:51.594Z,101467.73
2019-02-06T06:11:18.483Z,101460.33
2019-02-06T06:13:45.282Z,101462.36
2019-02-06T06:16:12.122Z,101471.22
2019-02-06T06:18:39.095Z,101460.89
2019-02-06T06:21:05.910Z,101464.19
2019-02-06T06:23:32.746Z,101463.83
2019-02-06T06:25:59.573Z,101467.11
2019-02-06T06:28:26.411Z,101460.68
2019-02-06T06:30:53.266Z,101455.04
2019-02-06T06:33:20.126Z,101454.83
2019-02-06T06:35:46.978Z,101458.85
2019-02-06T06:38:13.787Z,101462.42
2019-02-06T06:40:40.602Z,101462.84
2019-02-06T06:43:07.463Z,101464.87
2019-02-06T06:45:34.270Z,101470.61
2019-02-06T06:48:01.111Z,101474.63
2019-02-06T06:50:28.007Z,101478.00
2019-02-06T06:52:54.869Z,101479.62
2019-02-06T06:55:21.690Z,101476.72
2019-02-06T06:57:48.757Z,101485.46
2019-02-06T07:00:18.927Z,101482.14
2019-02-06T07:02:45.778Z,101474.21
2019-02-06T07:05:12.661Z,101475.91
2019-02-06T07:07:39.514Z,101482.91
2019-02-06T07:10:06.543Z,101482.28
2019-02-06T07:12:33.404Z,101490.79
2019-02-06T07:15:00.413Z,101487.80
2019-02-06T07:17:27.077Z,101489.42
2019-02-06T07:19:53.914Z,101488.20
2019-02-06T07:22:20.772Z,101494.87
2019-02-06T07:24:47.602Z,101491.92
2019-02-06T07:27:14.470Z,101491.91
2019-02-06T07:29:41.309Z,101495.19
2019-02-06T07:32:08.178Z,101487.51
2019-02-06T07:34:35.042Z,101486.25
2019-02-06T07:37:01.866Z,101490.78
2019-02-06T07:39:28.719Z,101495.45
2019-02-06T07:41:55.553Z,101491.81
2019-02-06T07:44:22.474Z,101499.70
2019-02-06T07:46:49.312Z,101501.44
2019-02-06T07:49:16.229Z,101498.64
2019-02-06T07:51:43.082Z,101492.55
2019-02-06T07:54:09.919Z,101498.39
2019-02-06T07:56:36.738Z,101501.36
2019-02-06T07:59:03.706Z,101501.06
2019-02-06T08:01:30.533Z,101501.77
2019-02-06T08:03:57.374Z,101500.05
2019-02-06T08:06:24.206Z,101502.38
2019-02-06T08:08:51.057Z,101502.06
2019-02-06T08:11:18.010Z,101497.86
2019-02-06T08:13:44.862Z,101505.04
2019-02-06T08:16:11.718Z,101499.88
2019-02-06T08:18:38.754Z,101496.58
2019-02-06T08:21:05.582Z,101502.58
2019-02-06T08:23:32.444Z,101498.91
2019-02-06T08:25:59.290Z,101494.84
2019-02-06T08:28:26.153Z,101497.81
2019-02-06T08:30:53.002Z,101503.16
2019-02-06T08:33:19.909Z,101503.31
2019-02-06T08:35:46.732Z,101490.45
2019-02-06T08:38:13.590Z,101504.22
2019-02-06T08:40:40.427Z,101493.50
2019-02-06T08:43:07.273Z,101495.87
2019-02-06T08:45:34.102Z,101501.43
2019-02-06T08:48:00.942Z,101503.31
2019-02-06T08:50:27.799Z,101500.97
2019-02-06T08:52:54.621Z,101508.43
2019-02-06T08:55:23.382Z,101502.09
2019-02-06T08:57:50.214Z,101493.33
2019-02-06T09:00:19.994Z,101501.10
2019-02-06T09:02:46.851Z,101499.92
2019-02-06T09:05:13.698Z,101497.75
2019-02-06T09:07:40.526Z,101492.95
2019-02-06T09:10:09.699Z,101494.29
2019-02-06T09:12:36.554Z,101492.17
2019-02-06T09:15:03.978Z,101486.80
2019-02-06T09:17:30.838Z,101490.42
2019-02-06T09:19:57.698Z,101487.98
2019-02-06T09:22:24.542Z,101481.22
2019-02-06T09:24:51.385Z,101491.00
2019-02-06T09:27:18.210Z,101485.50
2019-02-06T09:29:45.064Z,101483.18
2019-02-06T09:32:11.894Z,101484.53
2019-02-06T09:34:38.752Z,101489.12
2019-02-06T09:37:05.576Z,101482.61
2019-02-06T09:39:32.431Z,101486.03
2019-02-06T09:41:59.279Z,101483.98
2019-02-06T09:44:26.130Z,101486.29
2019-02-06T09:46:52.959Z,101478.73
2019-02-06T09:49:19.802Z,101483.88
2019-02-06T09:51:46.629Z,101487.77
2019-02-06T09:54:13.478Z,101479.58
2019-02-06T09:56:40.313Z,101484.86
2019-02-06T09:59:07.178Z,101476.12
2019-02-06T10:01:34.013Z,101473.36
2019-02-06T10:04:00.853Z,101462.23
2019-02-06T10:06:27.690Z,101460.11
2019-02-06T10:08:54.542Z,101463.72
2019-02-06T10:11:21.374Z,101466.74
2019-02-06T10:13:48.202Z,101462.70
2019-02-06T10:16:15.161Z,101457.80
2019-02-06T10:18:41.993Z,101465.14
2019-02-06T10:21:08.993Z,101459.89
2019-02-06T10:23:35.830Z,101464.30
2019-02-06T10:26:02.679Z,101457.08
2019-02-06T10:28:29.509Z,101450.16
2019-02-06T10:30:56.353Z,101447.59
2019-02-06T10:33:23.182Z,101442.41
2019-02-06T10:35:52.255Z,101437.16
2019-02-06T10:38:16.851Z,101437.72
2019-02-06T10:40:43.694Z,101436.99
2019-02-06T10:43:10.534Z,101443.39
2019-02-06T10:45:37.390Z,101432.57
2019-02-06T10:48:04.618Z,101434.47
2019-02-06T10:50:33.482Z,101426.33
2019-02-06T10:53:00.328Z,101416.58
2019-02-06T10:55:27.186Z,101411.81
2019-02-06T10:57:54.013Z,101405.36
2019-02-06T11:00:24.630Z,101394.84
2019-02-06T11:02:51.474Z,101398.84
2019-02-06T11:05:18.330Z,101391.38
2019-02-06T11:07:46.206Z,101377.11
2019-02-06T11:10:12.062Z,101371.14
2019-02-06T11:12:38.903Z,101375.80
2019-02-06T11:15:06.526Z,101365.53
2019-02-06T11:17:33.371Z,101367.92
2019-02-06T11:20:00.341Z,101367.50
2019-02-06T11:22:27.078Z,101364.16
2019-02-06T11:24:53.933Z,101354.88
2019-02-06T11:27:20.767Z,101347.43
2019-02-06T11:29:48.527Z,101348.67
2019-02-06T11:32:14.503Z,101339.66
2019-02-06T11:34:41.358Z,101339.78
2019-02-06T11:37:08.206Z,101334.16
2019-02-06T11:39:35.074Z,101330.16
2019-02-06T11:42:01.911Z,101320.88
2019-02-06T11:44:28.766Z,101315.82
2019-02-06T11:46:55.691Z,101316.22
2019-02-06T11:49:25.917Z,101315.53
2019-02-06T11:51:52.755Z,101308.77
2019-02-06T11:54:19.619Z,101313.55
2019-02-06T11:56:46.468Z,101304.23
2019-02-06T11:59:13.411Z,101302.42
2019-02-06T12:01:44.003Z,101298.17
2019-02-06T12:04:10.862Z,101291.14
2019-02-06T12:06:37.750Z,101288.48
2019-02-06T12:09:10.023Z,101290.98
2019-02-06T12:11:36.841Z,101278.81
2019-02-06T12:14:03.698Z,101276.25
2019-02-06T12:16:30.633Z,101277.27
2019-02-06T12:18:57.434Z,101265.17
2019-02-06T12:21:24.298Z,101259.63
2019-02-06T12:23:51.398Z,101250.86
2019-02-06T12:26:18.278Z,101247.98
2019-02-06T12:28:45.109Z,101240.55
2019-02-06T12:31:11.957Z,101243.61
2019-02-06T12:33:38.798Z,101236.52
2019-02-06T12:36:05.670Z,101229.13
2019-02-06T12:38:32.514Z,101224.75
2019-02-06T12:40:59.370Z,101230.92
2019-02-06T12:43:26.198Z,101228.20
2019-02-06T12:45:53.052Z,101224.59
2019-02-06T12:48:19.913Z,101219.74
2019-02-06T12:50:47.645Z,101214.63
2019-02-06T12:53:14.495Z,101212.13
2019-02-06T12:55:41.383Z,101210.69
2019-02-06T12:58:08.238Z,101209.14
2019-02-06T13:00:35.761Z,101206.39
2019-02-06T13:03:02.649Z,101204.77
2019-02-06T13:05:29.803Z,101206.26
2019-02-06T13:07:56.651Z,101199.92
2019-02-06T13:10:33.532Z,101205.09
2019-02-06T13:12:50.392Z,101195.73
2019-02-06T13:15:17.263Z,101183.76
2019-02-06T13:17:44.130Z,101179.69
2019-02-06T13:20:13.722Z,101184.22
2019-02-06T13:22:40.581Z,101184.75
2019-02-06T13:25:07.925Z,101180.41
2019-02-06T13:27:34.779Z,101185.58
2019-02-06T13:30:01.655Z,101180.00
2019-02-06T13:32:28.494Z,101174.64
2019-02-06T13:34:55.370Z,101165.11
2019-02-06T13:37:22.194Z,101161.76
2019-02-06T13:39:49.062Z,101149.23
2019-02-06T13:42:15.909Z,101153.97
2019-02-06T13:44:42.775Z,101147.16
2019-02-06T13:47:09.590Z,101131.66
2019-02-06T13:49:36.461Z,101125.20
2019-02-06T13:52:03.322Z,101118.53
2019-02-06T13:54:30.226Z,101117.39
2019-02-06T13:56:57.214Z,101125.30
2019-02-06T13:59:23.934Z,101131.05
2019-02-06T14:01:50.822Z,101121.41
2019-02-06T14:04:17.674Z,101128.72
2019-02-06T14:06:44.545Z,101127.40
2019-02-06T14:09:22.233Z,101119.67
2019-02-06T14:11:41.298Z,101107.47
2019-02-06T14:14:08.147Z,101109.88
2019-02-06T14:16:35.007Z,101105.13
2019-02-06T14:19:01.858Z,101103.75
2019-02-06T14:21:28.818Z,101100.88
2019-02-06T14:24:03.254Z,101094.36
2019-02-06T14:26:39.507Z,101087.87
2019-02-06T14:29:32.130Z,101093.84
2019-02-06T14:32:15.567Z,101087.08
2019-02-06T14:34:45.378Z,101074.48
2019-02-06T14:37:22.945Z,101065.59
2019-02-06T14:40:00.477Z,101061.88
2019-02-06T14:42:56.755Z,101062.37
2019-02-06T14:45:42.751Z,101055.23
2019-02-06T14:48:37.022Z,101052.03
2019-02-06T14:51:36.927Z,101034.61
2019-02-06T14:54:12.959Z,101036.45
2019-02-06T14:56:56.250Z,101032.95
2019-02-06T14:59:52.207Z,101034.03
2019-02-06T15:03:01.066Z,101027.98
2019-02-06T15:06:13.106Z,101029.20
2019-02-06T15:09:09.268Z,101040.19
2019-02-06T15:11:44.354Z,101037.09
2019-02-06T15:14:45.978Z,101040.53
2019-02-06T15:17:40.342Z,101035.80
2019-02-06T15:20:18.655Z,101029.85
2019-02-06T15:23:15.888Z,101032.94
2019-02-06T15:26:02.019Z,101025.14
2019-02-06T15:28:57.931Z,101033.51
2019-02-06T15:31:50.061Z,101033.14
2019-02-06T15:34:41.737Z,101037.79
2019-02-06T15:37:35.810Z,101029.33
2019-02-06T15:40:21.449Z,101027.11
2019-02-06T15:43:04.802Z,101014.70
2019-02-06T15:45:40.696Z,101017.77
2019-02-06T15:48:18.734Z,101010.48
2019-02-06T15:51:13.526Z,101012.63
2019-02-06T15:53:58.439Z,101008.50
2019-02-06T15:56:48.822Z,101007.47
2019-02-06T15:59:26.499Z,101007.50
2019-02-06T16:02:07.098Z,101008.06
2019-02-06T16:05:14.630Z,101007.81
2019-02-06T16:08:06.785Z,101011.49
2019-02-06T16:10:45.358Z,101001.81
2019-02-06T16:13:27.301Z,100997.95
2019-02-06T16:16:16.832Z,101002.00
2019-02-06T16:19:10.123Z,101004.30
2019-02-06T16:21:53.182Z,101007.17
2019-02-06T16:24:46.942Z,101001.61
2019-02-06T16:27:27.446Z,100998.72
2019-02-06T16:30:21.618Z,100994.84
2019-02-06T16:33:14.654Z,100987.03
2019-02-06T16:36:08.418Z,100994.94
2019-02-06T16:38:47.881Z,100986.89
2019-02-06T16:41:26.346Z,100988.90
2019-02-06T16:44:19.526Z,100987.70
2019-02-06T16:47:23.706Z,100993.22
2019-02-06T16:50:02.230Z,100998.51
2019-02-06T16:52:57.078Z,100993.13
2019-02-06T16:55:49.730Z,100992.47
2019-02-06T16:58:27.266Z,100987.55
2019-02-06T17:01:19.153Z,100994.13
2019-02-06T17:04:05.754Z,100991.80
2019-02-06T17:06:44.873Z,100997.23
2019-02-06T17:09:45.610Z,100991.62
2019-02-06T17:12:24.146Z,101003.95
2019-02-06T17:15:22.066Z,100996.24
2019-02-06T17:18:22.254Z,100999.19
2019-02-06T17:21:18.574Z,100995.48
2019-02-06T17:24:02.550Z,100999.30
2019-02-06T17:26:43.678Z,100991.53
2019-02-06T17:29:28.824Z,100982.10
2019-02-06T17:32:09.510Z,100993.45
2019-02-06T17:34:53.670Z,100993.47
2019-02-06T17:38:03.569Z,100983.69
2019-02-06T17:40:45.861Z,100980.84
2019-02-06T17:43:24.186Z,100978.48
2019-02-06T17:46:04.306Z,100974.59
2019-02-06T17:48:58.079Z,100977.59
2019-02-06T17:51:39.377Z,100969.08
2019-02-06T17:54:31.797Z,100965.23
2019-02-06T17:56:58.683Z,100969.72
2019-02-06T17:59:25.661Z,100974.21
2019-02-06T18:01:53.649Z,100977.56
2019-02-06T18:04:24.078Z,100975.98
2019-02-06T18:06:50.923Z,100969.67
2019-02-06T18:09:18.117Z,100962.54
2019-02-06T18:11:46.235Z,100971.04
2019-02-06T18:14:13.087Z,100971.38
2019-02-06T18:16:39.931Z,100960.35
2019-02-06T18:19:06.771Z,100964.78
2019-02-06T18:21:33.621Z,100957.43
2019-02-06T18:24:00.451Z,100958.19
2019-02-06T18:26:27.309Z,100951.47
2019-02-06T18:28:54.135Z,100943.98
2019-02-06T18:31:20.990Z,100941.21
2019-02-06T18:33:47.826Z,100939.94
2019-02-06T18:36:14.673Z,100937.57
2019-02-06T18:38:46.706Z,100935.05
2019-02-06T18:41:08.398Z,100939.93
2019-02-06T18:43:35.235Z,100940.23
2019-02-06T18:46:02.094Z,100945.97
2019-02-06T18:48:28.945Z,100947.54
2019-02-06T18:50:55.795Z,100950.52
2019-02-06T18:53:22.628Z,100943.88
2019-02-06T18:55:51.218Z,100941.44
2019-02-06T18:58:16.410Z,100939.13
2019-02-06T19:00:43.282Z,100934.63
2019-02-06T19:03:15.368Z,100936.91
2019-02-06T19:05:42.424Z,100932.59
2019-02-06T19:08:09.284Z,100935.13
2019-02-06T19:10:36.183Z,100930.38
2019-02-06T19:13:03.031Z,100928.54
2019-02-06T19:15:29.905Z,100922.96
2019-02-06T19:17:56.730Z,100922.38
2019-02-06T19:20:23.639Z,100920.95
2019-02-06T19:22:50.501Z,100920.20
2019-02-06T19:25:17.375Z,100910.44
2019-02-06T19:27:44.244Z,100910.17
2019-02-06T19:30:16.591Z,100911.30
2019-02-06T19:32:44.531Z,100908.95
2019-02-06T19:35:10.295Z,100903.28
2019-02-06T19:37:37.160Z,100904.55
2019-02-06T19:40:04.395Z,100883.30
2019-02-06T19:42:31.289Z,100896.02
2019-02-06T19:44:58.122Z,100889.59
2019-02-06T19:47:28.619Z,100890.59
2019-02-06T19:49:51.811Z,100883.11
2019-02-06T19:52:18.665Z,100872.22
2019-02-06T19:54:46.213Z,100879.41
2019-02-06T19:57:12.490Z,100878.63
2019-02-06T19:59:39.327Z,100869.12
2019-02-06T20:02:06.182Z,100865.75
2019-02-06T20:04:33.084Z,100857.37
2019-02-06T20:06:59.899Z,100858.24
2019-02-06T20:09:26.738Z,100849.22
2019-02-06T20:11:53.617Z,100852.97
2019-02-06T20:14:20.462Z,100847.64
2019-02-06T20:16:47.383Z,100852.75
2019-02-06T20:19:14.258Z,100854.16
2019-02-06T20:21:41.246Z,100856.98
2019-02-06T20:24:08.087Z,100852.89
2019-02-06T20:26:35.239Z,100853.97
2019-02-06T20:29:02.580Z,100857.02
2019-02-06T20:31:29.438Z,100858.11
2019-02-06T20:33:56.587Z,100855.89
2019-02-06T20:36:23.469Z,100847.08
2019-02-06T20:38:51.956Z,100846.78
2019-02-06T20:41:17.190Z,100842.86
2019-02-06T20:43:44.040Z,100843.58
2019-02-06T20:46:11.003Z,100840.54
2019-02-06T20:48:37.834Z,100839.41
2019-02-06T20:51:04.730Z,100836.08
2019-02-06T20:53:31.570Z,100843.95
2019-02-06T20:55:58.643Z,100828.61
2019-02-06T20:58:25.527Z,100832.67
2019-02-06T21:00:52.351Z,100825.22
2019-02-06T21:03:19.201Z,100814.98
2019-02-06T21:05:46.030Z,100822.17
2019-02-06T21:08:12.887Z,100824.11
2019-02-06T21:10:39.735Z,100827.54
2019-02-06T21:13:06.713Z,100824.78
2019-02-06T21:15:33.597Z,100828.44
2019-02-06T21:18:00.447Z,100824.20
2019-02-06T21:20:27.311Z,100829.48
2019-02-06T21:22:54.170Z,100835.30
2019-02-06T21:25:21.024Z,100830.24
2019-02-06T21:27:48.757Z,100826.79
2019-02-06T21:30:20.625Z,100827.22
2019-02-06T21:32:48.300Z,100821.50
2019-02-06T21:35:15.127Z,100819.16
2019-02-06T21:37:41.983Z,100813.75
2019-02-06T21:40:13.030Z,100810.41
2019-02-06T21:42:39.874Z,100805.81
2019-02-06T21:45:07.514Z,100803.02
2019-02-06T21:47:34.363Z,100807.11
2019-02-06T21:50:01.219Z,100795.11
2019-02-06T21:52:28.076Z,100799.71
2019-02-06T21:54:54.903Z,100792.44
2019-02-06T21:57:21.758Z,100783.05
2019-02-06T21:59:48.582Z,100785.21
2019-02-06T22:02:15.491Z,100775.44
2019-02-06T22:04:42.326Z,100777.94
2019-02-06T22:07:09.179Z,100780.78
2019-02-06T22:09:36.001Z,100772.37
2019-02-06T22:12:02.842Z,100766.49
2019-02-06T22:14:29.938Z,100771.22
2019-02-06T22:16:56.790Z,100764.15
2019-02-06T22:19:23.649Z,100762.07
2019-02-06T22:21:50.478Z,100761.53
2019-02-06T22:24:17.333Z,100756.81
2019-02-06T22:26:44.150Z,100752.56
2019-02-06T22:29:11.034Z,100754.54
2019-02-06T22:31:37.862Z,100752.28
2019-02-06T22:34:04.706Z,100748.17
2019-02-06T22:36:31.530Z,100740.52
2019-02-06T22:38:58.851Z,100746.48
2019-02-06T22:41:25.678Z,100740.43
2019-02-06T22:43:52.635Z,100743.73
2019-02-06T22:46:19.466Z,100742.95
2019-02-06T22:48:46.325Z,100753.18
2019-02-06T22:51:13.156Z,100743.78
2019-02-06T22:53:39.995Z,100747.04
2019-02-06T22:56:06.814Z,100736.04
2019-02-06T22:58:33.651Z,100732.18
2019-02-06T23:01:23.910Z,100729.15
2019-02-06T23:03:50.771Z,100728.14
2019-02-06T23:06:17.594Z,100723.22
2019-02-06T23:08:44.443Z,100720.07
2019-02-06T23:11:11.281Z,100712.91
2019-02-06T23:13:38.146Z,100700.74
2019-02-06T23:16:04.992Z,100702.66
2019-02-06T23:18:31.842Z,100698.33
2019-02-06T23:20:58.671Z,100698.91
2019-02-06T23:23:25.513Z,100701.25
2019-02-06T23:25:52.335Z,100689.84
2019-02-06T23:28:19.180Z,100696.64
2019-02-06T23:30:46.007Z,100686.96
2019-02-06T23:33:12.849Z,100684.70
2019-02-06T23:35:39.675Z,100683.11
2019-02-06T23:38:06.521Z,100678.64
2019-02-06T23:40:33.362Z,100674.17
2019-02-06T23:43:00.210Z,100683.81
2019-02-06T23:45:27.038Z,100678.12
2019-02-06T23:47:53.875Z,100676.30
2019-02-06T23:50:20.714Z,100678.51
2019-02-06T23:52:47.541Z,100666.21
2019-02-06T23:55:14.385Z,100671.42
2019-02-06T23:57:41.214Z,100674.47
